sensor_id;sensor_type;location;lat;lon;timestamp;temperature;humidity
74296;SHT30;62690;48.420;-4.512;2022-08-11T11:03:50;25.89;40.77
74296;SHT30;62690;48.420;-4.512;2022-08-11T11:06:25;26.21;42.20
74296;SHT30;62690;48.420;-4.512;2022-08-11T11:09:03;26.45;40.75
74296;SHT30;62690;48.420;-4.512;2022-08-11T11:11:36;26.65;40.65
74296;SHT30;62690;48.420;-4.512;2022-08-11T11:14:22;26.82;40.12
74296;SHT30;62690;48.420;-4.512;2022-08-11T11:17:11;27.02;39.62
74296;SHT30;62690;48.420;-4.512;2022-08-11T11:19:57;27.13;39.96
74296;SHT30;62690;48.420;-4.512;2022-08-11T11:22:27;27.23;39.69
74296;SHT30;62690;48.420;-4.512;2022-08-11T11:25:19;27.37;40.36
74296;SHT30;62690;48.420;-4.512;2022-08-11T11:28:06;27.49;41.77
74296;SHT30;62690;48.420;-4.512;2022-08-11T11:30:44;27.60;41.53
74296;SHT30;62690;48.420;-4.512;2022-08-11T11:38:35;27.93;41.69
74296;SHT30;62690;48.420;-4.512;2022-08-11T11:41:01;27.97;41.52
74296;SHT30;62690;48.420;-4.512;2022-08-11T11:43:45;28.04;41.15
74296;SHT30;62690;48.420;-4.512;2022-08-11T11:46:11;28.07;41.39
74296;SHT30;62690;48.420;-4.512;2022-08-11T11:48:39;28.17;40.79
74296;SHT30;62690;48.420;-4.512;2022-08-11T11:51:05;28.18;40.74
74296;SHT30;62690;48.420;-4.512;2022-08-11T11:53:31;28.28;40.35
74296;SHT30;62690;48.420;-4.512;2022-08-11T11:55:58;28.32;40.29
74296;SHT30;62690;48.420;-4.512;2022-08-11T11:58:25;28.38;40.34
74296;SHT30;62690;48.420;-4.512;2022-08-11T12:01:09;28.46;40.04
74296;SHT30;62690;48.420;-4.512;2022-08-11T12:03:45;28.52;39.47
74296;SHT30;62690;48.420;-4.512;2022-08-11T12:06:12;28.58;39.59
74296;SHT30;62690;48.420;-4.512;2022-08-11T12:08:41;28.63;39.13
74296;SHT30;62690;48.420;-4.512;2022-08-11T12:11:09;28.75;39.81
74296;SHT30;62690;48.420;-4.512;2022-08-11T12:13:55;28.86;39.72
74296;SHT30;62690;48.420;-4.512;2022-08-11T12:16:22;28.95;40.01
74296;SHT30;62690;48.420;-4.512;2022-08-11T12:18:51;29.04;39.86
74296;SHT30;62690;48.420;-4.512;2022-08-11T12:21:18;29.14;39.02
74296;SHT30;62690;48.420;-4.512;2022-08-11T12:23:48;29.24;38.62
74296;SHT30;62690;48.420;-4.512;2022-08-11T12:26:33;29.30;38.55
74296;SHT30;62690;48.420;-4.512;2022-08-11T12:29:16;29.39;37.82
74296;SHT30;62690;48.420;-4.512;2022-08-11T12:31:44;29.47;38.61
74296;SHT30;62690;48.420;-4.512;2022-08-11T12:34:11;29.53;38.02
74296;SHT30;62690;48.420;-4.512;2022-08-11T12:36:42;29.59;37.94
74296;SHT30;62690;48.420;-4.512;2022-08-11T12:39:19;29.71;38.24
74296;SHT30;62690;48.420;-4.512;2022-08-11T12:41:45;29.74;36.80
74296;SHT30;62690;48.420;-4.512;2022-08-11T12:44:30;29.84;37.65
74296;SHT30;62690;48.420;-4.512;2022-08-11T12:47:18;29.93;37.47
74296;SHT30;62690;48.420;-4.512;2022-08-11T12:49:46;30.04;37.08
74296;SHT30;62690;48.420;-4.512;2022-08-11T12:52:36;30.16;37.44
74296;SHT30;62690;48.420;-4.512;2022-08-11T12:55:16;30.27;37.52
74296;SHT30;62690;48.420;-4.512;2022-08-11T12:58:05;30.37;36.18
74296;SHT30;62690;48.420;-4.512;2022-08-11T13:00:44;30.49;36.94
74296;SHT30;62690;48.420;-4.512;2022-08-11T13:03:31;30.59;36.87
74296;SHT30;62690;48.420;-4.512;2022-08-11T13:06:17;30.74;37.18
74296;SHT30;62690;48.420;-4.512;2022-08-11T13:08:44;30.88;37.02
74296;SHT30;62690;48.420;-4.512;2022-08-11T13:11:11;31.04;36.48
74296;SHT30;62690;48.420;-4.512;2022-08-11T13:13:55;31.18;35.32
74296;SHT30;62690;48.420;-4.512;2022-08-11T13:16:30;31.32;34.67
74296;SHT30;62690;48.420;-4.512;2022-08-11T13:18:58;31.49;33.12
74296;SHT30;62690;48.420;-4.512;2022-08-11T13:21:26;31.67;34.10
74296;SHT30;62690;48.420;-4.512;2022-08-11T13:23:53;31.83;33.96
74296;SHT30;62690;48.420;-4.512;2022-08-11T13:26:24;32.00;33.21
74296;SHT30;62690;48.420;-4.512;2022-08-11T13:28:50;32.20;33.25
74296;SHT30;62690;48.420;-4.512;2022-08-11T13:31:16;32.40;33.32
74296;SHT30;62690;48.420;-4.512;2022-08-11T13:33:45;32.61;32.77
74296;SHT30;62690;48.420;-4.512;2022-08-11T13:36:12;32.79;31.72
74296;SHT30;62690;48.420;-4.512;2022-08-11T13:38:43;33.01;31.52
74296;SHT30;62690;48.420;-4.512;2022-08-11T13:41:09;33.23;31.70
74296;SHT30;62690;48.420;-4.512;2022-08-11T13:44:08;33.49;31.36
74296;SHT30;62690;48.420;-4.512;2022-08-11T13:46:35;33.67;30.06
74296;SHT30;62690;48.420;-4.512;2022-08-11T13:49:01;33.89;29.67
74296;SHT30;62690;48.420;-4.512;2022-08-11T13:51:29;34.10;29.37
74296;SHT30;62690;48.420;-4.512;2022-08-11T13:54:17;34.34;29.49
74296;SHT30;62690;48.420;-4.512;2022-08-11T13:56:46;34.58;30.25
74296;SHT30;62690;48.420;-4.512;2022-08-11T13:59:13;34.79;29.06
74296;SHT30;62690;48.420;-4.512;2022-08-11T14:01:43;34.99;29.29
74296;SHT30;62690;48.420;-4.512;2022-08-11T14:04:14;35.26;29.41
74296;SHT30;62690;48.420;-4.512;2022-08-11T14:06:47;35.50;27.71
74296;SHT30;62690;48.420;-4.512;2022-08-11T14:09:22;35.76;28.58
74296;SHT30;62690;48.420;-4.512;2022-08-11T14:11:50;36.02;28.87
74296;SHT30;62690;48.420;-4.512;2022-08-11T14:14:35;36.32;28.40
74296;SHT30;62690;48.420;-4.512;2022-08-11T14:17:04;36.57;27.79
74296;SHT30;62690;48.420;-4.512;2022-08-11T14:19:37;36.80;27.62
74296;SHT30;62690;48.420;-4.512;2022-08-11T14:22:04;37.00;27.65
74296;SHT30;62690;48.420;-4.512;2022-08-11T14:24:37;37.21;27.12
74296;SHT30;62690;48.420;-4.512;2022-08-11T14:27:05;37.42;26.09
74296;SHT30;62690;48.420;-4.512;2022-08-11T14:29:31;37.60;26.93
74296;SHT30;62690;48.420;-4.512;2022-08-11T14:32:00;37.81;26.55
74296;SHT30;62690;48.420;-4.512;2022-08-11T14:34:28;37.96;26.14
74296;SHT30;62690;48.420;-4.512;2022-08-11T14:37:05;38.20;25.96
74296;SHT30;62690;48.420;-4.512;2022-08-11T14:39:33;38.43;26.33
74296;SHT30;62690;48.420;-4.512;2022-08-11T14:42:06;38.64;25.96
74296;SHT30;62690;48.420;-4.512;2022-08-11T14:44:55;38.89;25.91
74296;SHT30;62690;48.420;-4.512;2022-08-11T14:47:41;39.08;24.83
74296;SHT30;62690;48.420;-4.512;2022-08-11T14:50:11;39.29;24.87
74296;SHT30;62690;48.420;-4.512;2022-08-11T14:53:00;39.54;25.12
74296;SHT30;62690;48.420;-4.512;2022-08-11T14:55:27;39.76;24.18
74296;SHT30;62690;48.420;-4.512;2022-08-11T14:58:18;39.95;22.96
74296;SHT30;62690;48.420;-4.512;2022-08-11T15:00:45;40.15;24.07
74296;SHT30;62690;48.420;-4.512;2022-08-11T15:03:12;40.37;23.37
74296;SHT30;62690;48.420;-4.512;2022-08-11T15:05:44;40.53;23.56
74296;SHT30;62690;48.420;-4.512;2022-08-11T15:08:12;40.74;24.22
74296;SHT30;62690;48.420;-4.512;2022-08-11T15:10:39;40.94;23.94
74296;SHT30;62690;48.420;-4.512;2022-08-11T15:13:05;41.12;23.09
74296;SHT30;62690;48.420;-4.512;2022-08-11T15:15:32;41.29;22.77
74296;SHT30;62690;48.420;-4.512;2022-08-11T15:18:19;41.50;22.36
74296;SHT30;62690;48.420;-4.512;2022-08-11T15:20:45;41.66;22.33
74296;SHT30;62690;48.420;-4.512;2022-08-11T15:23:29;41.92;22.14
74296;SHT30;62690;48.420;-4.512;2022-08-11T15:26:34;42.14;22.77
74296;SHT30;62690;48.420;-4.512;2022-08-11T15:29:24;42.38;22.99
74296;SHT30;62690;48.420;-4.512;2022-08-11T15:32:09;42.65;23.00
74296;SHT30;62690;48.420;-4.512;2022-08-11T15:34:58;42.88;23.12
74296;SHT30;62690;48.420;-4.512;2022-08-11T15:37:44;43.10;21.99
74296;SHT30;62690;48.420;-4.512;2022-08-11T15:40:24;43.30;21.38
74296;SHT30;62690;48.420;-4.512;2022-08-11T15:43:21;43.46;21.93
74296;SHT30;62690;48.420;-4.512;2022-08-11T15:46:31;43.67;22.73
74296;SHT30;62690;48.420;-4.512;2022-08-11T15:49:00;43.94;21.78
74296;SHT30;62690;48.420;-4.512;2022-08-11T15:51:46;44.15;21.76
74296;SHT30;62690;48.420;-4.512;2022-08-11T15:54:18;44.32;21.51
74296;SHT30;62690;48.420;-4.512;2022-08-11T15:56:47;44.48;21.49
74296;SHT30;62690;48.420;-4.512;2022-08-11T15:59:15;44.62;20.93
74296;SHT30;62690;48.420;-4.512;2022-08-11T16:02:03;44.76;20.83
74296;SHT30;62690;48.420;-4.512;2022-08-11T16:04:48;44.88;20.17
74296;SHT30;62690;48.420;-4.512;2022-08-11T16:07:16;44.99;19.77
74296;SHT30;62690;48.420;-4.512;2022-08-11T16:09:57;45.10;20.77
74296;SHT30;62690;48.420;-4.512;2022-08-11T16:12:26;45.30;20.36
74296;SHT30;62690;48.420;-4.512;2022-08-11T16:15:00;45.46;19.95
74296;SHT30;62690;48.420;-4.512;2022-08-11T16:17:46;45.63;19.98
74296;SHT30;62690;48.420;-4.512;2022-08-11T16:20:18;45.82;20.73
74296;SHT30;62690;48.420;-4.512;2022-08-11T16:22:45;45.98;19.50
74296;SHT30;62690;48.420;-4.512;2022-08-11T16:25:16;46.07;19.88
74296;SHT30;62690;48.420;-4.512;2022-08-11T16:27:45;46.15;19.98
74296;SHT30;62690;48.420;-4.512;2022-08-11T16:30:12;46.29;20.00
74296;SHT30;62690;48.420;-4.512;2022-08-11T16:32:40;46.39;19.89
74296;SHT30;62690;48.420;-4.512;2022-08-11T16:35:19;46.49;19.51
74296;SHT30;62690;48.420;-4.512;2022-08-11T16:38:06;46.63;19.57
74296;SHT30;62690;48.420;-4.512;2022-08-11T16:40:51;46.75;19.45
74296;SHT30;62690;48.420;-4.512;2022-08-11T16:43:20;46.79;19.18
74296;SHT30;62690;48.420;-4.512;2022-08-11T16:46:06;46.93;20.20
74296;SHT30;62690;48.420;-4.512;2022-08-11T16:49:07;47.00;20.46
74296;SHT30;62690;48.420;-4.512;2022-08-11T16:51:35;47.11;20.08
74296;SHT30;62690;48.420;-4.512;2022-08-11T16:54:01;47.16;20.21
74296;SHT30;62690;48.420;-4.512;2022-08-11T16:59:32;47.41;19.76
74296;SHT30;62690;48.420;-4.512;2022-08-11T17:02:10;47.50;20.06
74296;SHT30;62690;48.420;-4.512;2022-08-11T17:04:42;47.58;19.97
74296;SHT30;62690;48.420;-4.512;2022-08-11T17:07:28;47.67;19.99
74296;SHT30;62690;48.420;-4.512;2022-08-11T17:10:17;47.74;20.15
74296;SHT30;62690;48.420;-4.512;2022-08-11T17:13:03;47.81;20.08
74296;SHT30;62690;48.420;-4.512;2022-08-11T17:16:00;47.91;20.16
74296;SHT30;62690;48.420;-4.512;2022-08-11T17:18:41;48.01;20.07
74296;SHT30;62690;48.420;-4.512;2022-08-11T17:21:15;48.09;19.92
74296;SHT30;62690;48.420;-4.512;2022-08-11T17:23:46;48.21;19.91
74296;SHT30;62690;48.420;-4.512;2022-08-11T17:26:16;48.22;19.82
74296;SHT30;62690;48.420;-4.512;2022-08-11T17:28:43;48.21;19.74
74296;SHT30;62690;48.420;-4.512;2022-08-11T17:31:10;48.17;19.57
74296;SHT30;62690;48.420;-4.512;2022-08-11T17:33:57;48.15;19.65
74296;SHT30;62690;48.420;-4.512;2022-08-11T17:36:43;48.15;19.66
74296;SHT30;62690;48.420;-4.512;2022-08-11T17:39:10;48.14;19.75
74296;SHT30;62690;48.420;-4.512;2022-08-11T17:41:39;48.09;19.42
74296;SHT30;62690;48.420;-4.512;2022-08-11T17:44:25;48.08;19.64
74296;SHT30;62690;48.420;-4.512;2022-08-11T17:47:10;48.07;19.34
74296;SHT30;62690;48.420;-4.512;2022-08-11T17:49:56;48.04;19.31
74296;SHT30;62690;48.420;-4.512;2022-08-11T17:52:22;47.97;19.51
74296;SHT30;62690;48.420;-4.512;2022-08-11T17:55:07;47.97;19.73
74296;SHT30;62690;48.420;-4.512;2022-08-11T17:57:53;47.88;19.91
74296;SHT30;62690;48.420;-4.512;2022-08-11T18:00:38;47.84;19.88
74296;SHT30;62690;48.420;-4.512;2022-08-11T18:03:04;47.80;20.11
74296;SHT30;62690;48.420;-4.512;2022-08-11T18:05:50;47.77;19.98
74296;SHT30;62690;48.420;-4.512;2022-08-11T18:08:16;47.68;19.77
74296;SHT30;62690;48.420;-4.512;2022-08-11T18:11:01;47.61;20.04
74296;SHT30;62690;48.420;-4.512;2022-08-11T18:13:47;47.53;20.06
74296;SHT30;62690;48.420;-4.512;2022-08-11T18:16:31;47.44;20.18
74296;SHT30;62690;48.420;-4.512;2022-08-11T18:19:15;47.31;20.34
74296;SHT30;62690;48.420;-4.512;2022-08-11T18:22:06;47.16;20.27
74296;SHT30;62690;48.420;-4.512;2022-08-11T18:25:02;46.98;20.56
74296;SHT30;62690;48.420;-4.512;2022-08-11T18:27:52;46.83;20.84
74296;SHT30;62690;48.420;-4.512;2022-08-11T18:30:37;46.68;20.85
74296;SHT30;62690;48.420;-4.512;2022-08-11T18:33:26;46.51;20.86
74296;SHT30;62690;48.420;-4.512;2022-08-11T18:36:18;46.31;21.17
74296;SHT30;62690;48.420;-4.512;2022-08-11T18:39:05;46.15;21.05
74296;SHT30;62690;48.420;-4.512;2022-08-11T18:41:51;45.98;21.21
74296;SHT30;62690;48.420;-4.512;2022-08-11T18:44:37;45.78;21.38
74296;SHT30;62690;48.420;-4.512;2022-08-11T18:47:23;45.61;21.78
74296;SHT30;62690;48.420;-4.512;2022-08-11T18:50:10;45.37;21.40
74296;SHT30;62690;48.420;-4.512;2022-08-11T18:52:56;45.13;21.61
74296;SHT30;62690;48.420;-4.512;2022-08-11T18:55:43;44.79;21.82
74296;SHT30;62690;48.420;-4.512;2022-08-11T18:58:30;44.35;21.99
74296;SHT30;62690;48.420;-4.512;2022-08-11T19:01:15;43.76;22.45
74296;SHT30;62690;48.420;-4.512;2022-08-11T19:04:03;43.12;23.03
